Airfield :
LOGIN :

Register | Disclaimer

   EN    FR    IT 

 










Legend :    VFR   Marginal VFR   IFR   Intensive IFR   Very Intensive IFR
Visi :
Ceiling :
>= 8 km
>= 3000ft
5 to 8 km
1000 to 3000 ft
1500m to 5 km
500 to 1000 ft
800 to 1500m
200 to 500 ft
< 800m
< 200 ft
Symbols :   Thunderstorms  Fog  Heavy snow  Heavy precipitations  Wind > 20 kt
SIGMETs :     Misc.  Thunderstorms  Icing  Turbulence  Mountain Waves  Volcanic Ashes






- Airport Elevation : 291 ft
- IATA code : ORY


LFPO - Paris-Orly

CURRENT METAR :
  • 270630Z 21012KT 180V240 4000 -RA BR BKN010 09/08 Q1010 TEMPO 21018G28KT 4000 RADZ BKN007

EXPIRED METARs :
  • 270600Z 21013KT 9999 -RA BKN010 09/08 Q1010 TEMPO 21018G28KT 4000 RADZ BKN007
  • 270530Z 21014KT 9999 -RA BKN008 09/08 Q1010 TEMPO 21018G28KT 4000 RADZ BKN007
  • 270500Z 21014KT 7000 -RA FEW007 BKN008 09/08 Q1010 TEMPO 21018G28KT 4000 RADZ BKN007
  • 270430Z 20012KT 180V240 7000 BKN008 09/08 Q1011 TEMPO 21018G28KT 4000 RA BKN008
  • 270400Z 20011KT 160V220 9999 -RA BKN009 09/08 Q1011 TEMPO 21018G28KT 4000 RA BKN008

TAF TAF LFPO
Valid from the 27 at 06:00 until the 28 at 12:00 UTC


270500Z 2706/2812 21012KT 9999 BKN015
TEMPO 2706/2716 21015G25KT 4000 -RADZ BKN007
TEMPO 2716/2720 24018G30KT 2500 RA BKN008 SCT025TCU
TEMPO 2721/2812 24020G35KT 3000 SHRA BKN012 BKN025CB
ATIS : +33 1 49 75 65 80



MET'MAP, your aeronautical weather chart ! - Copyright ORBIFLY December 2007 - Disclaimer

ORBIFLY MET'MAP TEAM :

Programming & Development : Alexandra Zaïnal
Concept & original design : Baudouin d'Aumeries
Assistance for programming : Marc-Olivier Méhu
Technical & hardware support : Manuel Goepfert

Contact : metmap@orbifly.com




SOURCES & CREDITS :

   NOAA